createdAt,value
2019-03-22T00:03:50.678Z,98952.77
2019-03-22T00:08:55.465Z,98948.50
2019-03-22T00:14:00.165Z,98948.88
2019-03-22T00:19:04.894Z,98942.91
2019-03-22T00:24:09.544Z,98938.20
2019-03-22T00:29:14.186Z,98945.69
2019-03-22T00:34:18.928Z,98948.27
2019-03-22T00:39:24.537Z,98945.27
2019-03-22T00:44:29.240Z,98941.27
2019-03-22T00:49:33.977Z,98945.38
2019-03-22T00:54:38.615Z,98950.50
2019-03-22T00:59:43.360Z,98947.38
2019-03-22T01:04:48.102Z,98950.63
2019-03-22T01:09:52.843Z,98951.50
2019-03-22T01:14:57.474Z,98948.02
2019-03-22T01:20:02.132Z,98941.60
2019-03-22T01:25:07.207Z,98936.95
2019-03-22T01:30:18.474Z,98929.48
2019-03-22T01:35:23.217Z,98931.50
2019-03-22T01:40:28.940Z,98935.00
2019-03-22T01:45:33.826Z,98934.70
2019-03-22T01:50:38.568Z,98932.61
2019-03-22T01:55:43.310Z,98929.58
2019-03-22T02:00:47.962Z,98929.04
2019-03-22T02:05:52.697Z,98934.73
2019-03-22T02:10:57.334Z,98931.11
2019-03-22T02:16:02.076Z,98935.07
2019-03-22T02:21:06.636Z,98936.52
2019-03-22T02:26:11.358Z,98931.71
2019-03-22T02:31:15.998Z,98937.48
2019-03-22T02:36:22.176Z,98941.64
2019-03-22T02:41:26.928Z,98944.41
2019-03-22T02:46:31.562Z,98929.16
2019-03-22T02:51:36.301Z,98933.47
2019-03-22T02:56:42.068Z,98937.56
2019-03-22T03:01:46.717Z,98931.86
2019-03-22T03:06:51.352Z,98931.07
2019-03-22T03:11:57.018Z,98933.51
2019-03-22T03:17:01.756Z,98937.00
2019-03-22T03:22:06.390Z,98935.46
2019-03-22T03:27:11.244Z,98931.10
2019-03-22T03:32:15.992Z,98934.12
2019-03-22T03:37:20.735Z,98932.02
2019-03-22T03:42:25.469Z,98939.55
2019-03-22T03:47:30.124Z,98937.28
2019-03-22T03:52:34.752Z,98940.88
2019-03-22T03:57:39.497Z,98941.69
2019-03-22T04:02:44.340Z,98944.09
2019-03-22T04:07:48.983Z,98942.80
2019-03-22T04:12:53.721Z,98946.23
2019-03-22T04:17:58.361Z,98942.58
2019-03-22T04:23:04.656Z,98937.98
2019-03-22T04:28:09.388Z,98938.08
2019-03-22T04:33:15.139Z,98940.02
2019-03-22T04:38:19.998Z,98934.57
2019-03-22T04:43:26.075Z,98935.56
2019-03-22T04:48:32.616Z,98935.94
2019-03-22T04:53:40.383Z,98943.77
2019-03-22T04:58:46.803Z,98940.63
2019-03-22T05:03:51.287Z,98943.14
2019-03-22T05:08:56.031Z,98940.38
2019-03-22T05:14:00.669Z,98941.08
2019-03-22T05:19:06.644Z,98941.63
2019-03-22T05:24:11.385Z,98944.59
2019-03-22T05:29:16.139Z,98946.77
2019-03-22T05:34:20.764Z,98948.86
2019-03-22T05:39:25.512Z,98948.11
2019-03-22T05:44:30.171Z,98946.77
2019-03-22T05:49:34.898Z,98943.76
2019-03-22T05:54:39.741Z,98937.74
2019-03-22T05:59:44.481Z,98935.42
2019-03-22T06:04:49.230Z,98936.06
2019-03-22T06:09:53.974Z,98928.42
2019-03-22T06:14:58.711Z,98931.94
2019-03-22T06:20:04.275Z,98930.92
2019-03-22T06:25:09.131Z,98923.08
2019-03-22T06:30:13.769Z,98920.86
2019-03-22T06:35:18.500Z,98921.13
2019-03-22T06:40:23.141Z,98913.28
2019-03-22T06:45:27.781Z,98908.79
2019-03-22T06:50:32.423Z,98909.19
2019-03-22T06:55:37.164Z,98911.00
2019-03-22T07:00:42.117Z,98903.19
2019-03-22T07:05:47.885Z,98913.69
2019-03-22T07:10:52.528Z,98907.53
2019-03-22T07:15:57.263Z,98911.48
2019-03-22T07:21:02.019Z,98913.39
2019-03-22T07:26:06.854Z,98903.40
2019-03-22T07:31:11.597Z,98912.66
2019-03-22T07:36:16.443Z,98899.34
2019-03-22T07:41:21.193Z,98907.00
2019-03-22T07:46:25.844Z,98898.66
2019-03-22T07:51:30.570Z,98895.50
2019-03-22T07:56:35.317Z,98895.02
2019-03-22T08:01:40.059Z,98892.73
2019-03-22T08:06:44.903Z,98886.21
2019-03-22T08:11:49.654Z,98876.08
2019-03-22T08:16:54.283Z,98880.08
2019-03-22T08:21:59.033Z,98874.25
2019-03-22T08:27:03.797Z,98867.23
2019-03-22T08:32:08.617Z,98854.42
2019-03-22T08:37:13.370Z,98859.22
2019-03-22T08:42:18.122Z,98857.09
2019-03-22T08:47:33.257Z,98854.97
2019-03-22T08:52:29.246Z,98848.06
2019-03-22T08:57:33.882Z,98840.36
2019-03-22T09:02:38.622Z,98833.56
2019-03-22T09:07:43.409Z,98832.45
2019-03-22T09:12:48.204Z,98828.52
2019-03-22T09:17:53.063Z,98818.63
2019-03-22T09:22:57.793Z,98809.07
2019-03-22T09:28:02.546Z,98802.65
2019-03-22T09:33:08.817Z,98798.88
2019-03-22T09:38:13.735Z,98796.63
2019-03-22T09:43:18.828Z,98794.32
2019-03-22T09:48:23.791Z,98790.17
2019-03-22T09:53:30.495Z,98778.27
2019-03-22T09:58:36.650Z,98776.00
2019-03-22T10:03:42.617Z,98771.23
2019-03-22T10:08:48.364Z,98770.94
2019-03-22T10:13:53.134Z,98764.33
2019-03-22T10:18:57.880Z,98756.48
2019-03-22T10:24:02.641Z,98758.60
2019-03-22T10:29:08.368Z,98750.25
2019-03-22T10:34:13.134Z,98742.98
2019-03-22T10:39:19.396Z,98736.31
2019-03-22T10:44:24.222Z,98732.19
2019-03-22T10:49:29.084Z,98723.97
2019-03-22T10:54:33.968Z,98708.45
2019-03-22T10:59:38.875Z,98696.89
2019-03-22T11:04:43.622Z,98691.58
2019-03-22T11:09:48.364Z,98683.20
2019-03-22T11:14:53.214Z,98671.89
2019-03-22T11:19:58.055Z,98663.07
2019-03-22T11:25:04.832Z,98663.55
2019-03-22T11:30:11.813Z,98650.88
2019-03-22T11:35:18.025Z,98633.66
2019-03-22T11:40:22.769Z,98623.00
2019-03-22T11:45:27.512Z,98611.96
2019-03-22T11:50:32.250Z,98607.58
2019-03-22T11:55:37.097Z,98600.44
2019-03-22T12:00:41.770Z,98587.39
2019-03-22T12:05:46.376Z,98589.95
2019-03-22T12:10:51.125Z,98580.24
2019-03-22T12:15:55.868Z,98574.34
2019-03-22T12:21:00.512Z,98573.09
2019-03-22T12:26:06.508Z,98561.82
2019-03-22T12:31:11.444Z,98547.97
2019-03-22T12:36:16.084Z,98537.79
2019-03-22T12:41:20.918Z,98535.95
2019-03-22T12:46:26.687Z,98530.47
2019-03-22T12:51:31.432Z,98524.67
2019-03-22T12:56:36.488Z,98518.75
2019-03-22T13:01:41.231Z,98515.25
2019-03-22T13:06:45.959Z,98511.23
2019-03-22T13:11:52.700Z,98509.44
2019-03-22T13:16:57.409Z,98495.73
2019-03-22T13:22:02.062Z,98493.63
2019-03-22T13:27:06.683Z,98492.26
2019-03-22T13:32:11.427Z,98489.70
2019-03-22T13:37:16.272Z,98493.22
2019-03-22T13:42:21.021Z,98486.94
2019-03-22T13:47:25.868Z,98487.17
2019-03-22T13:52:30.426Z,98473.52
2019-03-22T13:57:36.257Z,98468.43
2019-03-22T14:02:42.694Z,98468.15
2019-03-22T14:07:47.503Z,98458.70
2019-03-22T14:12:52.350Z,98457.98
2019-03-22T14:17:58.000Z,98447.05
2019-03-22T14:23:03.671Z,98458.93
2019-03-22T14:28:08.429Z,98454.80
2019-03-22T14:33:13.868Z,98456.31
2019-03-22T14:38:18.637Z,98452.16
2019-03-22T14:43:24.483Z,98455.62
2019-03-22T14:48:31.003Z,98454.03
2019-03-22T14:53:35.726Z,98448.51
2019-03-22T14:58:41.592Z,98450.09
2019-03-22T15:03:46.341Z,98449.23
2019-03-22T15:08:51.090Z,98447.03
2019-03-22T15:14:01.388Z,98449.19
2019-03-22T15:19:25.227Z,98443.80
2019-03-22T15:24:41.745Z,98442.05
2019-03-22T15:29:54.292Z,98445.28
2019-03-22T15:35:12.759Z,98449.06
2019-03-22T15:40:17.500Z,98453.24
2019-03-22T15:45:22.474Z,98448.90
2019-03-22T15:50:27.099Z,98441.25
2019-03-22T15:55:33.400Z,98444.95
2019-03-22T16:00:38.425Z,98440.45
2019-03-22T16:05:43.795Z,98446.97
2019-03-22T16:10:49.773Z,98443.78
2019-03-22T16:15:56.363Z,98450.49
2019-03-22T16:21:00.978Z,98449.68
2019-03-22T16:26:05.929Z,98446.64
2019-03-22T16:31:10.885Z,98453.20
2019-03-22T16:36:15.665Z,98447.23
2019-03-22T16:41:20.465Z,98440.45
2019-03-22T16:46:25.718Z,98441.52
2019-03-22T16:51:30.461Z,98437.98
2019-03-22T16:56:35.235Z,98442.94
2019-03-22T17:01:40.058Z,98452.20
2019-03-22T17:06:44.639Z,98456.03
2019-03-22T17:11:50.238Z,98459.59
2019-03-22T17:16:55.208Z,98463.88
2019-03-22T17:21:59.952Z,98470.84
2019-03-22T17:27:04.591Z,98472.64
2019-03-22T17:32:09.233Z,98467.66
2019-03-22T17:37:13.975Z,98472.09
2019-03-22T17:42:18.750Z,98469.52
2019-03-22T17:47:23.370Z,98476.47
2019-03-22T17:52:28.110Z,98480.73
2019-03-22T17:57:32.760Z,98484.42
2019-03-22T18:02:37.707Z,98478.63
2019-03-22T18:07:44.073Z,98489.66
2019-03-22T18:12:48.822Z,98489.95
2019-03-22T18:17:54.220Z,98495.10
2019-03-22T18:22:59.051Z,98492.08
2019-03-22T18:28:03.698Z,98498.24
2019-03-22T18:33:08.814Z,98499.98
2019-03-22T18:38:13.865Z,98492.98
2019-03-22T18:43:18.713Z,98491.39
2019-03-22T18:48:23.451Z,98489.84
2019-03-22T18:53:28.298Z,98486.05
2019-03-22T18:58:34.066Z,98486.02
2019-03-22T19:03:38.910Z,98483.58
2019-03-22T19:08:43.656Z,98487.54
2019-03-22T19:13:48.541Z,98485.75
2019-03-22T19:18:53.352Z,98481.68
2019-03-22T19:23:58.088Z,98486.25
2019-03-22T19:29:02.834Z,98485.31
2019-03-22T19:34:10.336Z,98482.48
2019-03-22T19:39:14.977Z,98481.91
2019-03-22T19:44:19.825Z,98478.45
2019-03-22T19:49:24.564Z,98482.75
2019-03-22T19:54:29.853Z,98477.48
2019-03-22T19:59:34.762Z,98475.47
2019-03-22T20:04:39.453Z,98474.77
2019-03-22T20:09:44.209Z,98482.31
2019-03-22T20:14:49.022Z,98483.31
2019-03-22T20:19:54.894Z,98472.50
2019-03-22T20:24:59.609Z,98477.83
2019-03-22T20:30:06.444Z,98478.06
2019-03-22T20:35:16.445Z,98474.23
2019-03-22T20:40:19.574Z,98478.13
2019-03-22T20:45:24.655Z,98472.11
2019-03-22T20:50:35.695Z,98471.75
2019-03-22T20:55:36.159Z,98476.84
2019-03-22T21:00:40.905Z,98475.28
2019-03-22T21:05:47.183Z,98480.70
2019-03-22T21:10:51.936Z,98476.04
2019-03-22T21:15:56.769Z,98483.81
2019-03-22T21:21:01.520Z,98486.98
2019-03-22T21:26:06.258Z,98488.55
2019-03-22T21:31:10.999Z,98492.86
2019-03-22T21:36:15.948Z,98496.19
2019-03-22T21:41:20.690Z,98492.84
2019-03-22T21:46:25.433Z,98493.84
2019-03-22T21:51:30.279Z,98494.23
2019-03-22T21:56:34.915Z,98498.39
2019-03-22T22:01:39.547Z,98499.09
2019-03-22T22:06:44.302Z,98501.03
2019-03-22T22:11:49.249Z,98494.42
2019-03-22T22:16:53.991Z,98501.34
2019-03-22T22:21:58.605Z,98501.02
2019-03-22T22:27:13.414Z,98505.20
2019-03-22T22:32:11.904Z,98502.92
2019-03-22T22:37:16.648Z,98501.34
2019-03-22T22:42:21.388Z,98503.08
2019-03-22T22:47:26.245Z,98504.27
2019-03-22T22:52:32.514Z,98504.81
2019-03-22T22:57:37.334Z,98503.78
2019-03-22T23:02:42.102Z,98503.91
2019-03-22T23:07:46.844Z,98497.06
2019-03-22T23:12:52.207Z,98492.19
2019-03-22T23:17:56.836Z,98490.14
2019-03-22T23:23:01.473Z,98482.48
2019-03-22T23:28:06.409Z,98487.61
2019-03-22T23:33:11.164Z,98479.91
2019-03-22T23:38:16.937Z,98472.03
2019-03-22T23:43:21.675Z,98472.98
2019-03-22T23:48:27.757Z,98469.66
2019-03-22T23:53:32.392Z,98461.90
2019-03-22T23:58:37.037Z,98457.91
